Itaberai, Brazil
Current Conditions -  °F | °C
As of 8:00 PM on Thursday 23 Oct 2014 (Local Time) from SBGO Reporting Station
Broken Clouds Broken Clouds  
Wind Chill: 73°   Ceiling: 10000
Heat Index: 73°   Visibility: 6mi
Dew Point: 61°   Wind: 5mph
Humidity: 65%   Direction: 340°NNW
Pressure: 30"   Gusts: NA
Location:  16.02°S, 49.81°W
Report Text: SBGO 232200Z 34004KT 9999 FEW045 BKN100 23/16 Q1016
Loading
Personal Weather Stations






























Interactive Weather Map
Tropical Storm Tracking
New forecast layout! Learn more

10-Day Weather Forecast

Advertisements
Track Severe Weather on mobile